createdAt,value
2018-05-02T00:01:05.180Z,55.70
2018-05-02T00:04:37.652Z,55.80
2018-05-02T00:08:10.885Z,56.00
2018-05-02T00:11:43.363Z,56.00
2018-05-02T00:15:15.831Z,56.00
2018-05-02T00:18:48.296Z,56.60
2018-05-02T00:22:21.518Z,57.00
2018-05-02T00:25:53.983Z,57.10
2018-05-02T00:29:27.219Z,57.00
2018-05-02T00:32:59.687Z,57.10
2018-05-02T00:36:32.149Z,56.90
2018-05-02T00:40:05.385Z,57.90
2018-05-02T00:43:37.843Z,57.80
2018-05-02T00:47:10.314Z,57.90
2018-05-02T00:50:42.772Z,57.80
2018-05-02T00:54:16.005Z,57.10
2018-05-02T00:57:48.471Z,57.60
2018-05-02T01:01:20.924Z,57.80
2018-05-02T01:04:53.390Z,57.70
2018-05-02T01:08:25.852Z,57.60
2018-05-02T01:11:58.319Z,57.50
2018-05-02T01:15:30.775Z,57.50
2018-05-02T01:19:04.000Z,57.10
2018-05-02T01:22:36.472Z,57.10
2018-05-02T01:26:08.931Z,57.10
2018-05-02T01:29:42.171Z,57.10
2018-05-02T01:33:14.640Z,57.10
2018-05-02T01:36:47.100Z,57.00
2018-05-02T01:40:20.328Z,57.00
2018-05-02T01:43:52.793Z,57.00
2018-05-02T01:47:25.256Z,57.00
2018-05-02T01:50:58.476Z,56.80
2018-05-02T01:54:30.935Z,56.90
2018-05-02T01:58:04.163Z,57.10
2018-05-02T02:01:36.623Z,57.10
2018-05-02T02:05:09.085Z,57.10
2018-05-02T02:08:41.551Z,57.20
2018-05-02T02:12:14.017Z,56.90
2018-05-02T02:15:46.481Z,57.40
2018-05-02T02:19:18.936Z,57.50
2018-05-02T02:22:51.396Z,57.40
2018-05-02T02:26:23.860Z,57.60
2018-05-02T02:29:56.315Z,57.90
2018-05-02T02:33:28.785Z,57.90
2018-05-02T02:37:01.244Z,57.90
2018-05-02T02:40:33.708Z,57.80
2018-05-02T02:44:06.957Z,57.60
2018-05-02T02:47:39.422Z,57.60
2018-05-02T02:51:11.880Z,58.00
2018-05-02T02:54:45.108Z,58.20
2018-05-02T02:58:17.564Z,58.90
2018-05-02T03:01:50.036Z,58.20
2018-05-02T03:05:23.265Z,58.10
2018-05-02T03:08:55.711Z,58.10
2018-05-02T03:12:28.945Z,57.90
2018-05-02T03:16:01.412Z,58.60
2018-05-02T03:19:33.861Z,57.80
2018-05-02T03:23:06.329Z,57.70
2018-05-02T03:26:38.796Z,57.60
2018-05-02T03:30:12.018Z,57.60
2018-05-02T03:33:44.471Z,57.60
2018-05-02T03:37:16.940Z,57.80
2018-05-02T03:40:49.387Z,57.80
2018-05-02T03:44:22.617Z,57.90
2018-05-02T03:47:55.080Z,57.90
2018-05-02T03:51:27.537Z,58.00
2018-05-02T03:55:00.841Z,58.00
2018-05-02T03:58:33.237Z,57.90
2018-05-02T04:02:18.300Z,57.90
2018-05-02T04:06:03.472Z,57.90
2018-05-02T04:09:35.936Z,57.90
2018-05-02T04:13:08.393Z,58.30
2018-05-02T04:16:40.875Z,57.90
2018-05-02T04:20:13.355Z,58.10
2018-05-02T04:23:45.809Z,58.20
2018-05-02T04:27:18.312Z,58.40
2018-05-02T04:30:50.768Z,58.60
2018-05-02T04:34:23.239Z,58.60
2018-05-02T04:37:56.462Z,58.80
2018-05-02T04:41:29.060Z,58.80
2018-05-02T04:45:01.514Z,58.70
2018-05-02T04:48:34.017Z,58.70
2018-05-02T04:52:08.411Z,58.60
2018-05-02T04:55:41.630Z,58.10
2018-05-02T04:59:14.116Z,58.10
2018-05-02T05:02:46.580Z,57.00
2018-05-02T05:06:19.961Z,56.80
2018-05-02T05:09:52.422Z,56.70
2018-05-02T05:13:24.900Z,56.80
2018-05-02T05:16:57.364Z,56.60
2018-05-02T05:20:29.827Z,56.50
2018-05-02T05:24:02.299Z,56.40
2018-05-02T05:27:34.759Z,56.40
2018-05-02T05:31:08.045Z,56.20
2018-05-02T05:34:41.289Z,56.30
2018-05-02T05:38:13.759Z,56.10
2018-05-02T05:41:46.229Z,56.00
2018-05-02T05:45:19.456Z,55.60
2018-05-02T05:48:51.929Z,55.60
2018-05-02T05:52:24.437Z,55.30
2018-05-02T05:55:56.911Z,55.30
2018-05-02T05:59:29.385Z,55.30
2018-05-02T06:03:01.860Z,54.90
2018-05-02T06:06:34.346Z,54.70
2018-05-02T06:10:06.811Z,54.50
2018-05-02T06:13:39.281Z,54.30
2018-05-02T06:17:12.513Z,53.90
2018-05-02T06:20:44.987Z,53.90
2018-05-02T06:24:17.453Z,54.70
2018-05-02T06:27:49.932Z,54.20
2018-05-02T06:31:22.409Z,53.90
2018-05-02T06:34:55.636Z,53.90
2018-05-02T06:38:28.104Z,53.80
2018-05-02T06:42:00.573Z,53.80
2018-05-02T06:45:33.796Z,52.90
2018-05-02T06:49:06.269Z,52.90
2018-05-02T06:52:38.749Z,52.60
2018-05-02T06:56:11.212Z,52.20
2018-05-02T06:59:44.458Z,52.10
2018-05-02T07:03:16.934Z,52.10
2018-05-02T07:06:49.396Z,51.60
2018-05-02T07:10:21.904Z,51.00
2018-05-02T07:13:54.373Z,50.70
2018-05-02T07:17:26.873Z,50.30
2018-05-02T07:20:59.356Z,49.80
2018-05-02T07:24:31.841Z,49.60
2018-05-02T07:28:04.305Z,49.50
2018-05-02T07:31:37.553Z,48.70
2018-05-02T07:35:10.799Z,47.70
2018-05-02T07:38:43.275Z,47.60
2018-05-02T07:42:15.823Z,47.50
2018-05-02T07:45:48.224Z,47.30
2018-05-02T07:49:20.707Z,46.80
2018-05-02T07:52:53.180Z,46.70
2018-05-02T07:56:26.470Z,46.30
2018-05-02T07:59:58.908Z,46.30
2018-05-02T08:03:31.380Z,46.20
2018-05-02T08:07:03.864Z,46.40
2018-05-02T08:10:36.334Z,46.20
2018-05-02T08:14:08.801Z,46.50
2018-05-02T08:17:41.280Z,46.60
2018-05-02T08:21:13.741Z,46.50
2018-05-02T08:24:47.005Z,45.80
2018-05-02T08:28:19.476Z,45.80
2018-05-02T08:31:51.943Z,45.60
2018-05-02T08:35:25.192Z,44.90
2018-05-02T08:38:58.456Z,44.80
2018-05-02T08:42:30.936Z,44.70
2018-05-02T08:46:03.407Z,45.00
2018-05-02T08:49:35.871Z,44.70
2018-05-02T08:53:08.347Z,44.30
2018-05-02T08:56:40.827Z,43.10
2018-05-02T09:00:13.304Z,42.60
2018-05-02T09:03:46.597Z,42.00
2018-05-02T09:07:19.037Z,42.00
2018-05-02T09:10:51.522Z,42.30
2018-05-02T09:14:24.000Z,42.20
2018-05-02T09:17:56.484Z,41.80
2018-05-02T09:21:28.973Z,41.90
2018-05-02T09:25:01.457Z,41.60
2018-05-02T09:28:33.936Z,41.80
2018-05-02T09:32:06.420Z,41.70
2018-05-02T09:35:38.964Z,41.40
2018-05-02T09:39:11.376Z,41.20
2018-05-02T09:42:43.877Z,41.10
2018-05-02T09:46:16.344Z,41.00
2018-05-02T09:49:48.826Z,41.10
2018-05-02T09:53:21.295Z,40.70
2018-05-02T09:56:53.779Z,40.50
2018-05-02T10:00:30.041Z,40.20
2018-05-02T10:04:02.521Z,40.90
2018-05-02T10:07:34.992Z,39.80
2018-05-02T10:11:07.476Z,39.70
2018-05-02T10:14:39.966Z,40.10
2018-05-02T10:18:12.432Z,40.30
2018-05-02T10:21:44.907Z,39.30
2018-05-02T10:25:17.400Z,39.20
2018-05-02T10:28:49.872Z,39.30
2018-05-02T10:32:22.347Z,39.60
2018-05-02T10:35:54.826Z,39.90
2018-05-02T10:39:27.308Z,39.30
2018-05-02T10:42:59.790Z,39.80
2018-05-02T10:46:32.281Z,40.10
2018-05-02T10:50:04.755Z,40.10
2018-05-02T10:53:37.216Z,40.10
2018-05-02T10:57:09.699Z,40.30
2018-05-02T11:00:42.172Z,40.00
2018-05-02T11:04:14.737Z,40.00
2018-05-02T11:11:23.981Z,39.30
2018-05-02T11:14:56.448Z,39.30
2018-05-02T11:18:28.908Z,38.80
2018-05-02T11:22:01.412Z,39.40
2018-05-02T11:25:33.885Z,39.70
2018-05-02T11:29:06.355Z,39.60
2018-05-02T11:32:38.824Z,39.30
2018-05-02T11:36:12.055Z,39.10
2018-05-02T11:39:44.540Z,39.00
2018-05-02T11:43:17.015Z,38.80
2018-05-02T11:46:49.491Z,38.40
2018-05-02T11:50:21.968Z,38.00
2018-05-02T11:53:54.443Z,37.60
2018-05-02T11:57:26.920Z,37.80
2018-05-02T12:00:59.405Z,37.90
2018-05-02T12:04:31.897Z,37.90
2018-05-02T12:08:04.367Z,37.90
2018-05-02T12:11:36.849Z,37.80
2018-05-02T12:15:09.337Z,37.50
2018-05-02T12:18:41.825Z,37.60
2018-05-02T12:22:14.301Z,37.80
2018-05-02T12:25:46.772Z,37.80
2018-05-02T12:29:20.026Z,37.40
2018-05-02T12:32:52.492Z,37.30
2018-05-02T12:36:24.960Z,37.60
2018-05-02T12:39:57.438Z,37.90
2018-05-02T12:43:29.913Z,38.00
2018-05-02T12:47:02.381Z,37.70
2018-05-02T12:50:35.625Z,36.30
2018-05-02T12:54:08.112Z,36.30
2018-05-02T12:57:40.597Z,36.10
2018-05-02T13:01:13.076Z,36.20
2018-05-02T13:04:45.573Z,36.40
2018-05-02T13:08:18.045Z,35.90
2018-05-02T13:11:50.521Z,35.90
2018-05-02T13:15:23.003Z,36.10
2018-05-02T13:18:55.480Z,35.70
2018-05-02T13:22:27.971Z,35.60
2018-05-02T13:26:00.431Z,35.90
2018-05-02T13:29:33.680Z,35.70
2018-05-02T13:33:06.227Z,35.60
2018-05-02T13:36:38.662Z,35.40
2018-05-02T13:40:11.904Z,35.60
2018-05-02T13:43:44.415Z,35.60
2018-05-02T13:47:16.856Z,35.90
2018-05-02T13:50:50.093Z,36.00
2018-05-02T13:54:22.576Z,35.90
2018-05-02T13:57:55.060Z,35.80
2018-05-02T14:01:27.536Z,35.20
2018-05-02T14:05:00.010Z,34.90
2018-05-02T14:08:33.248Z,34.70
2018-05-02T14:12:05.612Z,34.90
2018-05-02T14:15:38.878Z,35.60
2018-05-02T14:19:11.473Z,35.60
2018-05-02T14:22:43.938Z,36.00
2018-05-02T14:26:16.437Z,35.90
2018-05-02T14:29:48.965Z,35.90
2018-05-02T14:33:21.403Z,35.80
2018-05-02T14:36:53.877Z,35.50
2018-05-02T14:40:26.369Z,35.30
2018-05-02T14:43:58.833Z,35.20
2018-05-02T14:47:31.322Z,35.20
2018-05-02T14:51:03.790Z,35.10
2018-05-02T14:54:36.265Z,34.90
2018-05-02T14:58:08.759Z,34.80
2018-05-02T15:01:41.245Z,35.00
2018-05-02T15:05:13.726Z,35.10
2018-05-02T15:08:46.191Z,34.60
2018-05-02T15:12:18.673Z,34.20
2018-05-02T15:15:51.140Z,34.30
2018-05-02T15:19:23.621Z,34.00
2018-05-02T15:22:56.097Z,33.80
2018-05-02T15:26:28.583Z,33.80
2018-05-02T15:30:01.064Z,33.80
2018-05-02T15:33:33.548Z,33.80
2018-05-02T15:37:06.018Z,33.90
2018-05-02T15:40:38.506Z,33.90
2018-05-02T15:44:10.971Z,33.90
2018-05-02T15:47:44.226Z,34.20
2018-05-02T15:51:16.695Z,34.10
2018-05-02T15:54:49.181Z,34.60
2018-05-02T15:58:21.688Z,35.20
2018-05-02T16:01:54.142Z,35.40
2018-05-02T16:05:27.092Z,35.60
2018-05-02T16:09:00.352Z,36.10
2018-05-02T16:12:32.828Z,36.10
2018-05-02T16:16:05.287Z,36.40
2018-05-02T16:19:37.764Z,37.00
2018-05-02T16:23:10.236Z,37.40
2018-05-02T16:26:42.749Z,37.80
2018-05-02T16:30:15.217Z,38.10
2018-05-02T16:33:47.699Z,38.30
2018-05-02T16:37:20.187Z,38.70
2018-05-02T16:40:52.716Z,39.30
2018-05-02T16:44:25.183Z,39.70
2018-05-02T16:47:57.657Z,40.30
2018-05-02T16:51:30.120Z,40.20
2018-05-02T16:55:02.588Z,40.30
2018-05-02T16:58:35.055Z,40.70
2018-05-02T17:02:07.544Z,40.70
2018-05-02T17:05:40.023Z,40.70
2018-05-02T17:09:12.655Z,40.90
2018-05-02T17:12:45.113Z,41.30
2018-05-02T17:16:18.029Z,41.20
2018-05-02T17:19:50.488Z,41.30
2018-05-02T17:23:22.961Z,41.60
2018-05-02T17:26:55.416Z,42.00
2018-05-02T17:30:27.883Z,42.20
2018-05-02T17:34:01.125Z,42.50
2018-05-02T17:37:33.671Z,42.40
2018-05-02T17:41:06.908Z,42.20
2018-05-02T17:44:39.394Z,42.20
2018-05-02T17:48:11.875Z,42.30
2018-05-02T17:51:44.345Z,42.30
2018-05-02T17:55:16.811Z,42.40
2018-05-02T17:58:49.523Z,42.50
2018-05-02T18:02:21.981Z,42.60
2018-05-02T18:05:54.475Z,42.80
2018-05-02T18:09:27.045Z,43.00
2018-05-02T18:12:59.528Z,43.10
2018-05-02T18:16:31.998Z,43.20
2018-05-02T18:20:04.477Z,43.40
2018-05-02T18:23:36.957Z,43.60
2018-05-02T18:27:10.207Z,44.20
2018-05-02T18:30:42.675Z,44.10
2018-05-02T18:34:15.485Z,44.20
2018-05-02T18:37:47.961Z,44.50
2018-05-02T18:41:20.436Z,44.50
2018-05-02T18:44:52.909Z,44.60
2018-05-02T18:48:25.380Z,44.80
2018-05-02T18:51:57.852Z,44.80
2018-05-02T18:55:30.344Z,45.00
2018-05-02T18:59:02.811Z,45.10
2018-05-02T19:02:35.283Z,45.30
2018-05-02T19:06:08.523Z,45.30
2018-05-02T19:09:41.007Z,45.30
2018-05-02T19:13:13.467Z,45.50
2018-05-02T19:16:45.940Z,45.60
2018-05-02T19:20:24.045Z,45.90
2018-05-02T19:23:56.564Z,46.00
2018-05-02T19:27:29.051Z,46.30
2018-05-02T19:31:07.323Z,46.60
2018-05-02T19:34:40.555Z,47.00
2018-05-02T19:38:13.032Z,47.00
2018-05-02T19:41:51.144Z,47.10
2018-05-02T19:45:23.700Z,47.30
2018-05-02T19:48:56.929Z,47.60
2018-05-02T19:52:35.014Z,47.60
2018-05-02T19:56:08.246Z,48.00
2018-05-02T19:59:40.719Z,48.00
2018-05-02T20:03:13.184Z,48.20
2018-05-02T20:06:45.653Z,48.30
2018-05-02T20:10:24.618Z,48.60
2018-05-02T20:14:02.863Z,48.60
2018-05-02T20:17:35.314Z,48.80
2018-05-02T20:21:07.787Z,48.90
2018-05-02T20:24:40.252Z,48.90
2018-05-02T20:28:13.491Z,49.00
2018-05-02T20:31:45.960Z,49.10
2018-05-02T20:35:18.431Z,49.20
2018-05-02T20:38:50.899Z,49.10
2018-05-02T20:42:24.138Z,49.10
2018-05-02T20:45:56.611Z,49.10
2018-05-02T20:49:29.147Z,49.10
2018-05-02T20:53:01.566Z,49.10
2018-05-02T20:56:34.039Z,49.10
2018-05-02T21:00:06.492Z,49.20
2018-05-02T21:03:39.727Z,49.50
2018-05-02T21:07:12.179Z,49.50
2018-05-02T21:10:45.442Z,49.90
2018-05-02T21:14:17.900Z,49.80
2018-05-02T21:17:50.368Z,49.90
2018-05-02T21:21:23.617Z,50.10
2018-05-02T21:24:56.088Z,50.30
2018-05-02T21:28:28.542Z,50.30
2018-05-02T21:32:01.015Z,50.40
2018-05-02T21:35:33.472Z,50.50
2018-05-02T21:39:06.708Z,50.80
2018-05-02T21:42:39.174Z,50.80
2018-05-02T21:46:11.764Z,50.90
2018-05-02T21:49:44.224Z,51.00
2018-05-02T21:53:17.460Z,51.30
2018-05-02T21:56:49.921Z,51.30
2018-05-02T22:00:22.381Z,51.50
2018-05-02T22:03:54.843Z,51.60
2018-05-02T22:07:27.309Z,51.80
2018-05-02T22:10:59.764Z,51.80
2018-05-02T22:14:32.239Z,51.90
2018-05-02T22:18:04.707Z,52.00
2018-05-02T22:21:37.168Z,52.20
2018-05-02T22:25:10.396Z,52.50
2018-05-02T22:28:42.859Z,52.50
2018-05-02T22:32:15.334Z,52.50
2018-05-02T22:35:48.566Z,52.60
2018-05-02T22:39:21.028Z,52.60
2018-05-02T22:42:53.499Z,52.60
2018-05-02T22:46:26.720Z,52.70
2018-05-02T22:49:59.196Z,52.70
2018-05-02T22:53:31.695Z,52.70
2018-05-02T22:57:04.152Z,52.80
2018-05-02T23:00:36.667Z,52.80
2018-05-02T23:04:09.139Z,52.70
2018-05-02T23:07:41.595Z,52.70
2018-05-02T23:11:14.057Z,52.70
2018-05-02T23:14:47.283Z,53.10
2018-05-02T23:18:19.774Z,53.10
2018-05-02T23:21:52.244Z,53.20
2018-05-02T23:25:24.710Z,53.30
2018-05-02T23:28:58.771Z,53.50
2018-05-02T23:32:31.231Z,53.50
2018-05-02T23:36:03.694Z,53.60
2018-05-02T23:39:36.969Z,54.00
2018-05-02T23:43:09.432Z,53.90
2018-05-02T23:46:41.890Z,54.00
2018-05-02T23:50:14.364Z,54.10
2018-05-02T23:53:46.820Z,54.10
2018-05-02T23:57:19.337Z,54.20
